createdAt,value
2022-12-13T00:00:19.376Z,101081.88
2022-12-13T00:03:20.915Z,101079.25
2022-12-13T00:06:22.767Z,101066.28
2022-12-13T00:09:24.387Z,101068.84
2022-12-13T00:12:26.147Z,101078.41
2022-12-13T00:15:27.666Z,101071.47
2022-12-13T00:18:29.600Z,101074.06
2022-12-13T00:21:33.244Z,101068.88
2022-12-13T00:24:35.036Z,101065.41
2022-12-13T00:27:36.603Z,101062.81
2022-12-13T00:30:38.415Z,101055.88
2022-12-13T00:33:40.013Z,101057.63
2022-12-13T00:36:41.569Z,101060.22
2022-12-13T00:39:43.167Z,101061.09
2022-12-13T00:42:44.778Z,101057.63
2022-12-13T00:45:46.342Z,101054.16
2022-12-13T00:48:53.332Z,101054.13
2022-12-13T00:51:54.894Z,101051.56
2022-12-13T00:54:56.436Z,101047.22
2022-12-13T00:57:57.982Z,101048.97
2022-12-13T01:01:07.968Z,101044.63
2022-12-13T01:04:10.889Z,101047.22
2022-12-13T01:07:12.415Z,101042.88
2022-12-13T01:10:14.148Z,101042.00
2022-12-13T01:13:15.835Z,101032.47
2022-12-13T01:16:18.695Z,101033.34
2022-12-13T01:19:20.587Z,101035.91
2022-12-13T01:22:22.434Z,101034.19
2022-12-13T01:25:23.987Z,101035.94
2022-12-13T01:28:25.748Z,101030.72
2022-12-13T01:31:27.410Z,101030.72
2022-12-13T01:34:29.264Z,101039.38
2022-12-13T01:37:30.782Z,101031.59
2022-12-13T01:40:47.964Z,101035.03
2022-12-13T01:43:55.227Z,101036.81
2022-12-13T01:46:56.792Z,101034.19
2022-12-13T01:50:01.839Z,101029.84
2022-12-13T01:53:07.380Z,101036.81
2022-12-13T01:56:34.663Z,101032.47
2022-12-13T01:59:39.696Z,101029.91
2022-12-13T02:02:41.586Z,101031.63
2022-12-13T02:05:51.442Z,101029.91
2022-12-13T02:08:54.451Z,101028.16
2022-12-13T02:11:56.151Z,101018.66
2022-12-13T02:15:08.727Z,101024.69
2022-12-13T02:18:31.441Z,101024.72
2022-12-13T02:21:54.887Z,101023.84
2022-12-13T02:25:34.945Z,101020.41
2022-12-13T02:28:50.035Z,101022.09
2022-12-13T02:32:19.496Z,101023.84
2022-12-13T02:35:26.423Z,101018.66
2022-12-13T02:38:39.161Z,101017.81
2022-12-13T02:41:57.411Z,101017.81
2022-12-13T02:45:20.259Z,101017.81
2022-12-13T02:48:27.358Z,101010.00
2022-12-13T02:51:30.550Z,101010.88
2022-12-13T02:54:32.095Z,101006.56
2022-12-13T02:57:35.836Z,101009.16
2022-12-13T03:00:52.907Z,101006.56
2022-12-13T03:04:15.472Z,101002.22
2022-12-13T03:07:29.466Z,101016.06
2022-12-13T03:10:44.084Z,101007.38
2022-12-13T03:13:58.301Z,100990.94
2022-12-13T03:17:02.592Z,100993.53
2022-12-13T03:20:12.841Z,100994.41
2022-12-13T03:23:25.736Z,100991.78
2022-12-13T03:26:27.664Z,100990.06
2022-12-13T03:29:29.301Z,100992.63
2022-12-13T03:32:30.870Z,100989.16
2022-12-13T03:35:34.930Z,100994.31
2022-12-13T03:38:48.480Z,100989.13
2022-12-13T03:41:50.368Z,100975.25
2022-12-13T03:44:52.186Z,100974.38
2022-12-13T03:47:53.790Z,100963.97
2022-12-13T03:50:55.665Z,100969.16
2022-12-13T03:53:57.187Z,100974.34
2022-12-13T03:56:58.716Z,100966.56
2022-12-13T04:00:00.232Z,100959.63
2022-12-13T04:03:02.303Z,100956.13
2022-12-13T04:06:04.668Z,100962.19
2022-12-13T04:09:06.189Z,100968.22
2022-12-13T04:12:26.673Z,100971.69
2022-12-13T04:15:28.206Z,100954.38
2022-12-13T04:18:30.484Z,100940.47
2022-12-13T04:21:31.987Z,100941.34
2022-12-13T04:24:33.530Z,100938.72
2022-12-13T04:27:35.071Z,100937.84
2022-12-13T04:30:37.056Z,100933.47
2022-12-13T04:33:38.571Z,100927.41
2022-12-13T04:36:40.515Z,100926.53
2022-12-13T04:39:47.833Z,100915.28
2022-12-13T04:42:54.055Z,100923.06
2022-12-13T04:45:56.445Z,100921.31
2022-12-13T04:48:58.032Z,100923.91
2022-12-13T04:52:01.617Z,100916.09
2022-12-13T04:55:04.364Z,100915.22
2022-12-13T04:58:05.900Z,100914.31
2022-12-13T05:01:09.598Z,100916.91
2022-12-13T05:04:11.191Z,100919.47
2022-12-13T05:07:12.725Z,100916.84
2022-12-13T05:10:37.483Z,100915.09
2022-12-13T05:13:35.906Z,100913.38
2022-12-13T05:16:37.517Z,100910.75
2022-12-13T05:19:39.096Z,100925.47
2022-12-13T05:22:40.632Z,100925.47
2022-12-13T05:25:42.158Z,100933.25
2022-12-13T05:28:43.698Z,100940.19
2022-12-13T05:31:45.289Z,100936.69
2022-12-13T05:34:46.846Z,100936.66
2022-12-13T05:37:48.387Z,100928.88
2022-12-13T05:40:56.110Z,100933.22
2022-12-13T05:43:58.283Z,100928.91
2022-12-13T05:47:02.442Z,100931.41
2022-12-13T05:50:04.974Z,100927.00
2022-12-13T05:53:07.479Z,100932.16
2022-12-13T05:56:11.238Z,100930.44
2022-12-13T05:59:12.816Z,100932.19
2022-12-13T06:02:19.738Z,100920.03
2022-12-13T06:05:23.111Z,100925.22
2022-12-13T06:08:25.601Z,100937.34
2022-12-13T06:11:32.111Z,100936.50
2022-12-13T06:14:33.948Z,100933.88
2022-12-13T06:17:37.024Z,100930.38
2022-12-13T06:20:38.907Z,100931.22
2022-12-13T06:23:40.469Z,100933.69
2022-12-13T06:26:42.045Z,100932.53
2022-12-13T06:29:43.568Z,100934.19
2022-12-13T06:32:50.022Z,100943.81
2022-12-13T06:35:52.789Z,100938.63
2022-12-13T06:38:54.400Z,100932.59
2022-12-13T06:41:56.231Z,100942.19
2022-12-13T06:44:57.789Z,100942.22
2022-12-13T06:47:59.493Z,100935.22
2022-12-13T06:51:02.814Z,100941.31
2022-12-13T06:54:04.527Z,100934.34
2022-12-13T06:57:06.109Z,100931.75
2022-12-13T07:00:08.476Z,100935.22
2022-12-13T07:03:12.014Z,100940.41
2022-12-13T07:06:21.432Z,100937.81
2022-12-13T07:09:22.985Z,100942.97
2022-12-13T07:12:24.564Z,100943.81
2022-12-13T07:15:26.569Z,100940.34
2022-12-13T07:18:28.198Z,100941.88
2022-12-13T07:21:30.768Z,100937.53
2022-12-13T07:24:32.347Z,100934.09
2022-12-13T07:27:34.654Z,100948.91
2022-12-13T07:30:40.876Z,100943.78
2022-12-13T07:33:43.299Z,100940.38
2022-12-13T07:36:44.838Z,100946.53
2022-12-13T07:39:46.684Z,100941.41
2022-12-13T07:42:52.330Z,100938.00
2022-12-13T07:45:54.028Z,100939.78
2022-12-13T07:48:55.963Z,100938.94
2022-12-13T07:52:03.378Z,100936.31
2022-12-13T07:55:06.187Z,100940.69
2022-12-13T07:58:10.542Z,100947.69
2022-12-13T08:01:14.595Z,100949.44
2022-12-13T08:04:16.198Z,100949.91
2022-12-13T08:07:18.030Z,100955.84
2022-12-13T08:10:19.687Z,100945.44
2022-12-13T08:13:21.781Z,100960.16
2022-12-13T08:16:28.174Z,100960.44
2022-12-13T08:19:30.854Z,100957.72
2022-12-13T08:22:35.717Z,100965.63
2022-12-13T08:25:38.005Z,100964.81
2022-12-13T08:28:39.581Z,100955.38
2022-12-13T08:31:41.268Z,100954.59
2022-12-13T08:34:44.065Z,100954.69
2022-12-13T08:37:45.571Z,100950.47
2022-12-13T08:40:47.247Z,100941.00
2022-12-13T08:43:53.095Z,100953.25
2022-12-13T08:46:54.718Z,100951.56
2022-12-13T08:50:03.972Z,100955.91
2022-12-13T08:53:06.163Z,100959.41
2022-12-13T08:56:11.679Z,100965.50
2022-12-13T08:59:13.274Z,100967.25
2022-12-13T09:02:17.851Z,100969.91
2022-12-13T09:05:34.332Z,100971.69
2022-12-13T09:08:37.587Z,100981.28
2022-12-13T09:11:40.922Z,100979.56
2022-12-13T09:14:45.198Z,100989.16
2022-12-13T09:17:52.491Z,100982.22
2022-12-13T09:20:54.624Z,100990.00
2022-12-13T09:24:23.607Z,101000.41
2022-12-13T09:27:28.966Z,101004.72
2022-12-13T09:30:31.674Z,100983.84
2022-12-13T09:33:41.556Z,100991.66
2022-12-13T09:36:43.456Z,100988.19
2022-12-13T09:39:45.134Z,100982.09
2022-12-13T09:43:04.559Z,100974.63
2022-12-13T09:46:23.694Z,100963.16
2022-12-13T09:49:35.250Z,100951.66
2022-12-13T09:52:40.271Z,100959.56
2022-12-13T09:55:47.403Z,100964.16
2022-12-13T09:58:50.440Z,100961.75
2022-12-13T10:01:52.110Z,100955.00
2022-12-13T10:05:01.272Z,100965.75
2022-12-13T10:08:22.669Z,100966.13
2022-12-13T10:11:32.063Z,100957.63
2022-12-13T10:14:40.974Z,100954.28
2022-12-13T10:17:51.486Z,100937.28
2022-12-13T10:20:57.723Z,100942.91
2022-12-13T10:24:37.099Z,100941.47
2022-12-13T10:27:45.403Z,100937.47
2022-12-13T10:30:46.948Z,100935.97
2022-12-13T10:33:57.927Z,100935.31
2022-12-13T10:37:00.001Z,100935.53
2022-12-13T10:40:01.692Z,100938.25
2022-12-13T10:43:12.284Z,100940.09
2022-12-13T10:46:25.028Z,100941.06
2022-12-13T10:49:37.448Z,100939.34
2022-12-13T10:52:47.856Z,100931.53
2022-12-13T10:55:55.489Z,100936.69
2022-12-13T10:59:26.526Z,100925.38
2022-12-13T11:02:37.335Z,100925.34
2022-12-13T11:05:40.637Z,100934.06
2022-12-13T11:08:42.228Z,100925.31
2022-12-13T11:11:44.802Z,100926.13
2022-12-13T11:15:04.376Z,100922.59
2022-12-13T11:18:19.118Z,100923.44
2022-12-13T11:21:32.720Z,100923.41
2022-12-13T11:24:37.733Z,100916.44
2022-12-13T11:27:57.775Z,100911.25
2022-12-13T11:31:03.371Z,100913.03
2022-12-13T11:34:23.423Z,100908.66
2022-12-13T11:37:24.967Z,100910.34
2022-12-13T11:40:32.555Z,100912.97
2022-12-13T11:43:44.255Z,100900.84
2022-12-13T11:46:54.346Z,100901.75
2022-12-13T11:49:57.285Z,100887.00
2022-12-13T11:53:19.295Z,100885.31
2022-12-13T11:56:31.724Z,100876.47
2022-12-13T11:59:53.213Z,100879.06
2022-12-13T12:03:09.935Z,100872.06
2022-12-13T12:06:29.522Z,100873.75
2022-12-13T12:09:33.207Z,100864.28
2022-12-13T12:12:41.352Z,100873.84
2022-12-13T12:15:52.331Z,100864.28
2022-12-13T12:19:01.106Z,100863.28
2022-12-13T12:22:28.917Z,100857.09
2022-12-13T12:25:42.425Z,100856.03
2022-12-13T12:28:46.816Z,100858.03
2022-12-13T12:32:06.962Z,100866.31
2022-12-13T12:35:40.407Z,100857.34
2022-12-13T12:39:15.468Z,100860.94
2022-12-13T12:43:14.132Z,100860.25
2022-12-13T12:47:09.118Z,100859.41
2022-12-13T12:50:26.194Z,100861.28
2022-12-13T12:53:47.659Z,100860.06
2022-12-13T12:57:02.083Z,100854.06
2022-12-13T13:00:09.643Z,100849.94
2022-12-13T13:03:24.735Z,100854.47
2022-12-13T13:06:35.227Z,100853.81
2022-12-13T13:09:38.845Z,100850.56
2022-12-13T13:12:43.203Z,100852.50
2022-12-13T13:15:53.992Z,100849.25
2022-12-13T13:18:58.986Z,100848.56
2022-12-13T13:22:02.383Z,100860.91
2022-12-13T13:25:07.036Z,100846.25
2022-12-13T13:28:19.267Z,100842.97
2022-12-13T13:31:20.913Z,100836.16
2022-12-13T13:34:31.850Z,100835.94
2022-12-13T13:37:48.739Z,100835.94
2022-12-13T13:40:50.992Z,100837.72
2022-12-13T13:43:52.558Z,100853.03
2022-12-13T13:47:16.026Z,100843.88
2022-12-13T13:50:44.467Z,100844.78
2022-12-13T13:54:06.467Z,100844.88
2022-12-13T13:57:13.997Z,100844.97
2022-12-13T14:00:43.838Z,100839.84
2022-12-13T14:03:45.489Z,100841.69
2022-12-13T14:07:11.472Z,100849.59
2022-12-13T14:10:48.362Z,100841.91
2022-12-13T14:14:38.789Z,100846.38
2022-12-13T14:17:58.842Z,100839.50
2022-12-13T14:21:22.373Z,100839.53
2022-12-13T14:24:39.920Z,100833.50
2022-12-13T14:27:53.836Z,100839.59
2022-12-13T14:30:57.137Z,100834.38
2022-12-13T14:34:01.696Z,100831.75
2022-12-13T14:37:06.451Z,100830.06
2022-12-13T14:40:32.624Z,100835.34
2022-12-13T14:43:35.626Z,100841.44
2022-12-13T14:46:37.241Z,100839.75
2022-12-13T14:49:48.713Z,100836.22
2022-12-13T14:52:51.034Z,100836.22
2022-12-13T14:56:27.730Z,100837.09
2022-12-13T14:59:30.264Z,100829.31
2022-12-13T15:02:33.681Z,100825.00
2022-12-13T15:05:50.599Z,100833.63
2022-12-13T15:08:52.488Z,100822.88
2022-12-13T15:11:57.468Z,100814.13
2022-12-13T15:15:07.401Z,100818.47
2022-12-13T15:18:36.254Z,100832.50
2022-12-13T15:21:37.855Z,100834.31
2022-12-13T15:24:47.016Z,100835.28
2022-12-13T15:27:52.736Z,100824.00
2022-12-13T15:30:57.080Z,100829.31
2022-12-13T15:34:28.885Z,100829.34
2022-12-13T15:37:33.217Z,100829.34
2022-12-13T15:40:34.985Z,100824.06
2022-12-13T15:43:44.946Z,100823.97
2022-12-13T15:46:52.018Z,100817.97
2022-12-13T15:49:59.407Z,100822.50
2022-12-13T15:53:17.682Z,100826.19
2022-12-13T15:57:00.132Z,100818.56
2022-12-13T16:00:30.753Z,100823.06
2022-12-13T16:03:43.358Z,100813.69
2022-12-13T16:06:52.435Z,100811.91
2022-12-13T16:09:55.373Z,100813.56
2022-12-13T16:13:01.873Z,100804.09
2022-12-13T16:16:30.404Z,100796.44
2022-12-13T16:19:32.745Z,100794.84
2022-12-13T16:22:34.250Z,100787.97
2022-12-13T16:25:35.838Z,100795.94
2022-12-13T16:28:37.364Z,100786.47
2022-12-13T16:31:38.914Z,100777.09
2022-12-13T16:34:40.477Z,100781.56
2022-12-13T16:37:42.060Z,100778.22
2022-12-13T16:40:53.861Z,100773.13
2022-12-13T16:44:01.994Z,100773.25
2022-12-13T16:47:17.309Z,100775.13
2022-12-13T16:50:21.962Z,100774.50
2022-12-13T16:53:24.989Z,100778.06
2022-12-13T16:56:26.832Z,100780.75
2022-12-13T16:59:28.374Z,100771.25
2022-12-13T17:02:29.977Z,100778.25
2022-12-13T17:05:33.771Z,100775.72
2022-12-13T17:08:35.317Z,100773.16
2022-12-13T17:11:37.612Z,100773.19
2022-12-13T17:14:39.201Z,100771.47
2022-12-13T17:17:42.900Z,100774.94
2022-12-13T17:20:44.945Z,100772.44
2022-12-13T17:23:46.460Z,100758.59
2022-12-13T17:26:54.387Z,100753.44
2022-12-13T17:29:57.102Z,100754.34
2022-12-13T17:32:59.085Z,100763.06
2022-12-13T17:36:08.545Z,100751.75
2022-12-13T17:39:12.167Z,100762.09
2022-12-13T17:42:13.904Z,100762.13
2022-12-13T17:45:16.907Z,100761.28
2022-12-13T17:48:18.457Z,100763.94
2022-12-13T17:51:20.007Z,100753.56
2022-12-13T17:54:23.817Z,100755.38
2022-12-13T17:57:25.392Z,100758.94
2022-12-13T18:00:26.972Z,100762.53
2022-12-13T18:03:28.865Z,100760.03
2022-12-13T18:06:31.795Z,100759.28
2022-12-13T18:09:33.446Z,100743.75
2022-12-13T18:12:34.971Z,100742.09
2022-12-13T18:15:37.007Z,100750.84
2022-12-13T18:18:38.780Z,100745.72
2022-12-13T18:21:41.461Z,100750.09
2022-12-13T18:24:42.963Z,100745.78
2022-12-13T18:27:44.654Z,100738.03
2022-12-13T18:30:46.341Z,100740.69
2022-12-13T18:33:49.562Z,100734.59
2022-12-13T18:36:51.313Z,100724.25
2022-12-13T18:39:54.976Z,100732.91
2022-12-13T18:42:57.006Z,100729.47
2022-12-13T18:46:02.705Z,100730.31
2022-12-13T18:49:05.934Z,100728.56
2022-12-13T18:52:07.447Z,100727.66
2022-12-13T18:55:09.565Z,100725.06
2022-12-13T18:58:11.100Z,100725.94
2022-12-13T19:01:13.555Z,100729.41
2022-12-13T19:04:15.148Z,100719.88
2022-12-13T19:07:16.734Z,100713.84
2022-12-13T19:10:18.649Z,100719.91
2022-12-13T19:13:22.856Z,100716.44
2022-12-13T19:16:26.361Z,100719.00
2022-12-13T19:19:27.987Z,100711.19
2022-12-13T19:22:30.239Z,100702.50
2022-12-13T19:25:31.759Z,100705.97
2022-12-13T19:28:34.282Z,100706.84
2022-12-13T19:31:35.985Z,100705.94
2022-12-13T19:34:38.539Z,100703.34
2022-12-13T19:37:40.312Z,100694.69
2022-12-13T19:40:42.604Z,100692.91
2022-12-13T19:43:52.084Z,100692.84
2022-12-13T19:46:56.043Z,100678.94
2022-12-13T19:49:57.773Z,100689.31
2022-12-13T19:52:59.336Z,100685.00
2022-12-13T19:56:00.923Z,100684.13
2022-12-13T19:59:02.531Z,100678.06
2022-12-13T20:02:05.656Z,100684.19
2022-12-13T20:05:07.963Z,100680.75
2022-12-13T20:08:10.200Z,100681.63
2022-12-13T20:11:19.413Z,100682.47
2022-12-13T20:14:21.074Z,100684.28
2022-12-13T20:17:22.601Z,100682.56
2022-12-13T20:20:31.485Z,100691.28
2022-12-13T20:23:38.208Z,100678.38
2022-12-13T20:26:39.797Z,100671.50
2022-12-13T20:29:41.449Z,100660.25
2022-12-13T20:32:50.507Z,100667.22
2022-12-13T20:36:22.653Z,100658.53
2022-12-13T20:39:14.559Z,100663.66
2022-12-13T20:42:16.477Z,100667.09
2022-12-13T20:45:18.011Z,100664.50
2022-12-13T20:48:19.570Z,100670.56
2022-12-13T20:51:23.981Z,100650.56
2022-12-13T20:54:25.631Z,100654.03
2022-12-13T20:57:27.153Z,100645.31
2022-12-13T21:00:28.855Z,100645.31
2022-12-13T21:03:30.584Z,100637.50
2022-12-13T21:06:34.313Z,100639.22
2022-12-13T21:09:35.843Z,100646.09
2022-12-13T21:12:37.440Z,100643.44
2022-12-13T21:15:38.924Z,100639.09
2022-12-13T21:18:40.614Z,100636.47
2022-12-13T21:21:42.924Z,100639.94
2022-12-13T21:24:44.443Z,100628.63
2022-12-13T21:27:45.984Z,100626.00
2022-12-13T21:30:50.067Z,100622.53
2022-12-13T21:33:54.697Z,100614.72
2022-12-13T21:36:56.210Z,100607.81
2022-12-13T21:39:57.810Z,100611.31
2022-12-13T21:42:59.311Z,100610.47
2022-12-13T21:46:01.373Z,100614.84
2022-12-13T21:49:02.918Z,100610.50
2022-12-13T21:52:04.747Z,100603.63
2022-12-13T21:55:30.487Z,100600.19
2022-12-13T21:58:46.676Z,100594.19
2022-12-13T22:02:13.533Z,100593.38
2022-12-13T22:05:15.294Z,100582.16
2022-12-13T22:08:16.887Z,100582.22
2022-12-13T22:11:21.582Z,100584.81
2022-12-13T22:14:23.308Z,100580.47
2022-12-13T22:17:32.985Z,100574.41
2022-12-13T22:20:36.594Z,100570.09
2022-12-13T22:23:38.192Z,100571.84
2022-12-13T22:26:40.192Z,100569.25
2022-12-13T22:29:41.728Z,100567.56
2022-12-13T22:32:43.296Z,100561.53
2022-12-13T22:35:44.808Z,100560.69
2022-12-13T22:38:48.510Z,100562.44
2022-12-13T22:41:51.247Z,100552.06
2022-12-13T22:44:52.843Z,100560.72
2022-12-13T22:47:54.503Z,100558.13
2022-12-13T22:50:56.347Z,100563.31
2022-12-13T22:53:57.892Z,100556.69
2022-12-13T22:56:59.427Z,100550.44
2022-12-13T23:00:00.985Z,100545.91
2022-12-13T23:03:02.565Z,100540.75
2022-12-13T23:06:15.482Z,100547.84
2022-12-13T23:09:17.075Z,100542.00
2022-12-13T23:12:37.306Z,100541.31
2022-12-13T23:15:38.865Z,100545.84
2022-12-13T23:18:40.391Z,100543.44
2022-12-13T23:21:42.652Z,100545.34
2022-12-13T23:24:52.416Z,100547.25
2022-12-13T23:27:53.957Z,100543.06
2022-12-13T23:31:01.010Z,100544.94
2022-12-13T23:34:03.060Z,100547.69
2022-12-13T23:37:04.867Z,100543.47
2022-12-13T23:40:07.138Z,100533.16
2022-12-13T23:43:09.764Z,100534.97
2022-12-13T23:46:14.110Z,100522.88
2022-12-13T23:49:16.413Z,100522.97
2022-12-13T23:52:17.974Z,100509.16
2022-12-13T23:55:19.808Z,100505.78
2022-12-13T23:58:22.447Z,100503.22
